METAR AND TAF INFORMATION
METAR FOR AGGR
ADDS - METARS form results

(0450 UTC 26 February 2020)
Data provider http://aviationweather.gov/metar/data/
 
Forecast for: AGGR (RENNELL TINGOA , SB)
Text: TAF AGGR 252310Z 2600/2624 14010KT 9999 SCT019 Q 1009 1007 1006 1008
Forecast period: 0000 UTC 26 February 2020 to 0000 UTC 27 February 2020
Forecast type: FROM: standard forecast or significant change
Winds: from the SE (140 degrees) at 12 MPH (10 knots; 5.1 m/s)
Visibility: 6 or more miles 10+ km)
Ceiling: at least 12,000 feet AGL
Clouds: scattered clouds at 1900 feet AGL
Weather: no significant weather forecast for this period

 AIRPORT MAP

 RUNWAY INFORMATION
Runway 12 Runway length 2206 ft Runway width 66 ft
Runway elevation 0 ft Runway displaced threshold 0 ft Runway heading 0
Runway 30 Runway length 2206 ft Runway width 66 ft
Runway elevation 0 ft Runway displaced threshold 0 ft Runway heading 0

 AIRPORT FREQUENCIES

 AIRPORT NEAR NAVIGATION AIDS



Powered by Virtual Airlines Manager [v2.6.2]